createdAt,value
2019-05-09T00:02:00.159Z,84.90
2019-05-09T00:04:30.511Z,84.80
2019-05-09T00:06:59.942Z,84.90
2019-05-09T00:09:31.029Z,85.20
2019-05-09T00:12:00.505Z,85.50
2019-05-09T00:14:34.215Z,85.40
2019-05-09T00:17:05.996Z,85.00
2019-05-09T00:19:35.540Z,85.20
2019-05-09T00:22:07.330Z,85.40
2019-05-09T00:24:38.780Z,85.30
2019-05-09T00:27:08.313Z,85.40
2019-05-09T00:29:39.500Z,85.60
2019-05-09T00:32:13.575Z,85.30
2019-05-09T00:34:53.134Z,85.20
2019-05-09T00:37:43.071Z,85.50
2019-05-09T00:40:13.363Z,85.70
2019-05-09T00:42:44.072Z,85.70
2019-05-09T00:45:15.344Z,85.30
2019-05-09T00:47:44.845Z,85.50
2019-05-09T00:50:14.422Z,85.70
2019-05-09T00:52:44.884Z,85.40
2019-05-09T00:55:14.478Z,85.50
2019-05-09T00:57:44.045Z,85.10
2019-05-09T01:00:17.818Z,85.10
2019-05-09T01:02:50.394Z,84.70
2019-05-09T01:05:20.130Z,85.00
2019-05-09T01:07:49.594Z,85.20
2019-05-09T01:10:19.157Z,84.80
2019-05-09T01:12:50.356Z,84.80
2019-05-09T01:15:23.958Z,84.80
2019-05-09T01:17:55.120Z,84.70
2019-05-09T01:20:24.599Z,84.80
2019-05-09T01:22:54.212Z,84.70
2019-05-09T01:25:25.870Z,84.80
2019-05-09T01:27:56.288Z,85.00
2019-05-09T01:30:25.825Z,84.80
2019-05-09T01:33:04.594Z,84.80
2019-05-09T01:35:34.142Z,85.00
2019-05-09T01:38:04.313Z,84.90
2019-05-09T01:40:36.208Z,84.60
2019-05-09T01:43:06.526Z,84.40
2019-05-09T01:45:37.054Z,84.40
2019-05-09T01:48:08.575Z,84.60
2019-05-09T01:50:38.124Z,84.50
2019-05-09T01:53:07.652Z,84.10
2019-05-09T01:55:57.988Z,84.20
2019-05-09T01:58:34.217Z,84.10
2019-05-09T02:01:05.638Z,84.10
2019-05-09T02:03:35.447Z,84.30
2019-05-09T02:06:05.661Z,84.50
2019-05-09T02:08:36.123Z,84.60
2019-05-09T02:11:07.481Z,84.50
2019-05-09T02:13:38.177Z,84.60
2019-05-09T02:16:09.388Z,84.60
2019-05-09T02:18:44.088Z,84.80
2019-05-09T02:21:14.575Z,84.70
2019-05-09T02:23:44.250Z,84.80
2019-05-09T02:26:16.133Z,85.00
2019-05-09T02:28:45.642Z,84.60
2019-05-09T02:31:16.646Z,84.80
2019-05-09T02:33:46.208Z,85.10
2019-05-09T02:36:18.695Z,85.20
2019-05-09T02:38:48.685Z,85.10
2019-05-09T02:41:20.087Z,85.30
2019-05-09T02:43:49.961Z,85.40
2019-05-09T02:46:29.469Z,85.40
2019-05-09T02:48:59.629Z,85.20
2019-05-09T02:51:30.001Z,85.60
2019-05-09T02:54:00.431Z,85.50
2019-05-09T02:56:30.233Z,85.20
2019-05-09T02:59:04.221Z,85.50
2019-05-09T03:01:41.115Z,85.70
2019-05-09T03:04:11.501Z,85.80
2019-05-09T03:06:43.022Z,86.10
2019-05-09T03:09:13.387Z,86.00
2019-05-09T03:11:43.014Z,86.40
2019-05-09T03:14:13.977Z,86.50
2019-05-09T03:16:44.687Z,86.80
2019-05-09T03:19:14.187Z,86.80
2019-05-09T03:21:49.315Z,86.60
2019-05-09T03:24:21.876Z,86.80
2019-05-09T03:26:54.056Z,86.80
2019-05-09T03:29:29.166Z,86.80
2019-05-09T03:32:00.195Z,87.30
2019-05-09T03:34:30.355Z,87.80
2019-05-09T03:36:59.850Z,88.10
2019-05-09T03:39:31.024Z,88.10
2019-05-09T03:42:00.426Z,88.10
2019-05-09T03:44:33.029Z,88.30
2019-05-09T03:47:04.182Z,88.30
2019-05-09T03:49:37.694Z,88.40
2019-05-09T03:52:08.965Z,88.70
2019-05-09T03:54:41.442Z,89.00
2019-05-09T03:57:14.467Z,88.70
2019-05-09T03:59:43.949Z,89.40
2019-05-09T04:02:17.666Z,89.50
2019-05-09T04:04:47.530Z,90.00
2019-05-09T04:07:18.606Z,90.20
2019-05-09T04:09:48.068Z,90.20
2019-05-09T04:12:18.324Z,90.30
2019-05-09T04:14:48.190Z,90.20
2019-05-09T04:17:18.214Z,90.10
2019-05-09T04:19:50.427Z,89.90
2019-05-09T04:22:20.411Z,89.90
2019-05-09T04:24:50.234Z,89.60
2019-05-09T04:27:22.573Z,89.50
2019-05-09T04:29:52.622Z,89.40
2019-05-09T04:32:23.030Z,89.10
2019-05-09T04:34:54.105Z,89.20
2019-05-09T04:37:23.526Z,89.10
2019-05-09T04:39:54.076Z,89.00
2019-05-09T04:42:25.120Z,89.00
2019-05-09T04:45:02.785Z,89.30
2019-05-09T04:47:28.460Z,89.00
2019-05-09T04:49:58.906Z,88.40
2019-05-09T04:52:29.383Z,88.20
2019-05-09T04:54:59.079Z,87.60
2019-05-09T04:57:32.762Z,87.60
2019-05-09T05:00:04.790Z,87.10
2019-05-09T05:02:37.977Z,87.10
2019-05-09T05:05:07.921Z,87.20
2019-05-09T05:07:40.450Z,86.70
2019-05-09T05:10:09.954Z,86.50
2019-05-09T05:12:39.438Z,86.80
2019-05-09T05:15:09.377Z,86.90
2019-05-09T05:17:42.698Z,86.80
2019-05-09T05:20:18.719Z,87.30
2019-05-09T05:22:58.430Z,87.20
2019-05-09T05:25:31.768Z,86.70
2019-05-09T05:28:02.163Z,86.90
2019-05-09T05:30:33.323Z,86.70
2019-05-09T05:33:05.333Z,86.30
2019-05-09T05:35:39.315Z,85.80
2019-05-09T05:38:08.875Z,85.00
2019-05-09T05:40:45.126Z,84.90
2019-05-09T05:43:12.294Z,84.80
2019-05-09T05:45:43.361Z,85.20
2019-05-09T05:48:23.927Z,84.60
2019-05-09T05:50:57.808Z,84.40
2019-05-09T05:53:27.746Z,84.40
2019-05-09T05:56:03.289Z,84.30
2019-05-09T05:58:32.790Z,84.20
2019-05-09T06:01:04.561Z,84.40
2019-05-09T06:03:33.944Z,84.20
2019-05-09T06:06:03.464Z,83.60
2019-05-09T06:08:32.922Z,83.50
2019-05-09T06:11:03.519Z,83.00
2019-05-09T06:13:32.984Z,83.10
2019-05-09T06:16:04.729Z,81.50
2019-05-09T06:18:35.163Z,81.00
2019-05-09T06:21:04.760Z,81.20
2019-05-09T06:23:37.293Z,80.70
2019-05-09T06:26:09.843Z,80.20
2019-05-09T06:28:40.325Z,79.10
2019-05-09T06:34:08.172Z,78.60
2019-05-09T06:36:38.891Z,77.80
2019-05-09T06:39:10.042Z,78.60
2019-05-09T06:41:40.164Z,78.90
2019-05-09T06:44:19.637Z,79.20
2019-05-09T06:46:53.643Z,79.40
2019-05-09T06:49:29.371Z,77.70
2019-05-09T06:51:59.592Z,77.80
2019-05-09T06:54:31.631Z,77.60
2019-05-09T06:57:01.162Z,76.90
2019-05-09T06:59:30.668Z,76.20
2019-05-09T07:02:01.755Z,76.20
2019-05-09T07:04:37.998Z,75.50
2019-05-09T07:07:18.131Z,75.10
2019-05-09T07:09:51.776Z,74.70
2019-05-09T07:12:22.366Z,74.30
2019-05-09T07:14:53.821Z,73.70
2019-05-09T07:17:24.660Z,72.60
2019-05-09T07:19:54.148Z,71.10
2019-05-09T07:22:27.844Z,71.60
2019-05-09T07:25:10.265Z,72.50
2019-05-09T07:27:40.974Z,73.90
2019-05-09T07:30:13.851Z,75.00
2019-05-09T07:32:48.674Z,74.70
2019-05-09T07:35:18.711Z,74.60
2019-05-09T07:37:49.274Z,74.20
2019-05-09T07:40:22.052Z,74.40
2019-05-09T07:42:50.779Z,74.50
2019-05-09T07:45:21.797Z,74.10
2019-05-09T07:47:51.225Z,74.40
2019-05-09T07:50:20.827Z,74.20
2019-05-09T07:52:52.230Z,73.10
2019-05-09T07:55:21.807Z,73.00
2019-05-09T07:57:55.393Z,72.30
2019-05-09T08:00:33.950Z,71.30
2019-05-09T08:03:03.837Z,71.20
2019-05-09T08:05:33.406Z,71.20
2019-05-09T08:08:08.158Z,70.00
2019-05-09T08:10:41.108Z,69.80
2019-05-09T08:13:12.100Z,69.30
2019-05-09T08:15:41.018Z,70.00
2019-05-09T08:18:11.676Z,70.90
2019-05-09T08:20:43.160Z,69.10
2019-05-09T08:23:12.743Z,70.90
2019-05-09T08:25:43.541Z,71.20
2019-05-09T08:28:13.165Z,70.70
2019-05-09T08:30:43.187Z,69.60
2019-05-09T08:33:12.613Z,68.90
2019-05-09T08:35:43.073Z,68.60
2019-05-09T08:38:14.637Z,68.40
2019-05-09T08:40:44.232Z,67.70
2019-05-09T08:43:15.037Z,66.60
2019-05-09T08:45:44.516Z,66.90
2019-05-09T08:48:14.020Z,67.20
2019-05-09T08:50:47.909Z,68.30
2019-05-09T08:53:15.641Z,67.60
2019-05-09T08:55:47.364Z,66.40
2019-05-09T08:58:19.296Z,68.40
2019-05-09T09:00:49.062Z,68.50
2019-05-09T09:03:20.707Z,69.20
2019-05-09T09:05:51.214Z,73.00
2019-05-09T09:08:22.296Z,75.00
2019-05-09T09:10:53.733Z,77.30
2019-05-09T09:13:23.201Z,79.10
2019-05-09T09:16:12.140Z,79.80
2019-05-09T09:18:28.156Z,80.90
2019-05-09T09:20:58.874Z,80.20
2019-05-09T09:23:42.380Z,80.40
2019-05-09T09:26:00.046Z,79.40
2019-05-09T09:28:31.448Z,80.60
2019-05-09T09:31:01.044Z,80.30
2019-05-09T09:33:31.414Z,77.90
2019-05-09T09:36:01.761Z,74.60
2019-05-09T09:38:31.218Z,73.70
2019-05-09T09:41:01.592Z,73.90
2019-05-09T09:43:31.079Z,72.50
2019-05-09T09:46:10.455Z,72.10
2019-05-09T09:48:33.187Z,71.70
2019-05-09T09:51:02.617Z,73.60
2019-05-09T09:53:32.171Z,73.80
2019-05-09T09:56:01.694Z,73.30
2019-05-09T09:58:32.087Z,71.50
2019-05-09T10:01:24.015Z,71.00
2019-05-09T10:03:55.157Z,71.60
2019-05-09T10:06:24.797Z,70.00
2019-05-09T10:08:58.501Z,70.10
2019-05-09T10:11:29.235Z,68.90
2019-05-09T10:13:59.733Z,67.40
2019-05-09T10:16:34.231Z,66.70
2019-05-09T10:19:08.780Z,66.40
2019-05-09T10:21:42.898Z,66.00
2019-05-09T10:24:13.329Z,66.50
2019-05-09T10:26:59.569Z,66.90
2019-05-09T10:29:29.914Z,66.40
2019-05-09T10:32:00.272Z,65.80
2019-05-09T10:34:33.264Z,65.00
2019-05-09T10:37:03.143Z,66.00
2019-05-09T10:39:34.431Z,66.40
2019-05-09T10:42:07.934Z,66.40
2019-05-09T10:44:44.738Z,68.00
2019-05-09T10:47:15.867Z,70.10
2019-05-09T10:49:45.321Z,73.20
2019-05-09T10:52:14.850Z,75.30
2019-05-09T10:54:50.498Z,75.50
2019-05-09T10:57:21.461Z,77.60
2019-05-09T10:59:50.940Z,75.90
2019-05-09T11:02:21.117Z,77.80
2019-05-09T11:04:50.579Z,75.70
2019-05-09T11:07:20.392Z,77.00
2019-05-09T11:09:50.731Z,77.20
2019-05-09T11:12:23.610Z,76.60
2019-05-09T11:14:52.255Z,77.00
2019-05-09T11:17:23.959Z,76.70
2019-05-09T11:19:54.716Z,76.60
2019-05-09T11:22:29.287Z,76.00
2019-05-09T11:25:00.303Z,72.00
2019-05-09T11:27:29.733Z,70.20
2019-05-09T11:30:01.174Z,70.00
2019-05-09T11:32:33.202Z,70.20
2019-05-09T11:35:02.746Z,69.60
2019-05-09T11:37:33.244Z,65.70
2019-05-09T11:40:04.387Z,64.40
2019-05-09T11:42:33.827Z,64.10
2019-05-09T11:45:03.953Z,63.70
2019-05-09T11:47:44.738Z,64.50
2019-05-09T11:50:08.771Z,66.90
2019-05-09T11:52:38.390Z,69.70
2019-05-09T11:55:28.875Z,74.00
2019-05-09T11:57:48.343Z,76.70
2019-05-09T12:00:18.525Z,77.30
2019-05-09T12:02:50.043Z,77.50
2019-05-09T12:05:19.374Z,78.30
2019-05-09T12:07:49.039Z,78.30
2019-05-09T12:10:18.831Z,78.00
2019-05-09T12:12:49.329Z,73.70
2019-05-09T12:15:20.638Z,74.20
2019-05-09T12:17:57.925Z,75.80
2019-05-09T12:20:21.247Z,76.30
2019-05-09T12:22:51.315Z,75.30
2019-05-09T12:25:20.730Z,73.50
2019-05-09T12:27:50.201Z,73.20
2019-05-09T12:30:21.687Z,73.30
2019-05-09T12:32:52.776Z,72.50
2019-05-09T12:35:22.269Z,70.20
2019-05-09T12:37:54.483Z,66.40
2019-05-09T12:40:23.992Z,59.90
2019-05-09T12:42:56.868Z,57.40
2019-05-09T12:45:27.443Z,55.50
2019-05-09T12:48:07.594Z,56.00
2019-05-09T12:50:29.408Z,56.20
2019-05-09T12:53:02.530Z,55.70
2019-05-09T12:55:31.993Z,54.30
2019-05-09T12:58:06.721Z,53.80
2019-05-09T13:00:38.788Z,51.40
2019-05-09T13:03:08.796Z,52.30
2019-05-09T13:05:41.024Z,53.20
2019-05-09T13:08:10.686Z,52.60
2019-05-09T13:10:42.623Z,51.60
2019-05-09T13:13:13.817Z,51.60
2019-05-09T13:15:49.903Z,50.60
2019-05-09T13:18:24.967Z,51.20
2019-05-09T13:20:51.362Z,52.60
2019-05-09T13:23:23.128Z,52.10
2019-05-09T13:25:53.491Z,48.40
2019-05-09T13:28:26.023Z,46.80
2019-05-09T13:30:58.500Z,49.10
2019-05-09T13:33:29.347Z,49.60
2019-05-09T13:36:05.021Z,50.60
2019-05-09T13:38:37.861Z,47.20
2019-05-09T13:41:08.515Z,48.60
2019-05-09T13:43:45.980Z,47.80
2019-05-09T13:46:12.672Z,47.20
2019-05-09T13:49:01.318Z,47.50
2019-05-09T13:51:18.719Z,47.80
2019-05-09T13:53:50.524Z,47.60
2019-05-09T13:56:22.425Z,48.00
2019-05-09T13:58:52.290Z,50.00
2019-05-09T14:01:21.755Z,51.20
2019-05-09T14:03:54.676Z,52.40
2019-05-09T14:06:25.009Z,53.50
2019-05-09T14:08:59.863Z,54.20
2019-05-09T14:11:29.495Z,56.10
2019-05-09T14:14:01.783Z,56.60
2019-05-09T14:16:32.459Z,54.90
2019-05-09T14:19:25.982Z,54.80
2019-05-09T14:21:36.196Z,54.50
2019-05-09T14:24:14.864Z,55.20
2019-05-09T14:26:42.479Z,54.90
2019-05-09T14:29:13.735Z,53.60
2019-05-09T14:31:44.833Z,52.00
2019-05-09T14:34:19.830Z,51.40
2019-05-09T14:36:52.180Z,52.40
2019-05-09T14:39:21.687Z,54.40
2019-05-09T14:41:51.154Z,56.20
2019-05-09T14:44:22.252Z,57.00
2019-05-09T14:46:52.699Z,57.90
2019-05-09T14:49:23.769Z,62.30
2019-05-09T14:52:03.178Z,65.60
2019-05-09T14:54:34.422Z,68.00
2019-05-09T14:57:10.070Z,71.20
2019-05-09T14:59:42.262Z,74.50
2019-05-09T15:02:12.865Z,73.80
2019-05-09T15:04:48.639Z,75.40
2019-05-09T15:07:25.465Z,79.10
2019-05-09T15:09:59.890Z,80.60
2019-05-09T15:12:32.865Z,82.50
2019-05-09T15:15:04.803Z,84.90
2019-05-09T15:17:37.222Z,86.00
2019-05-09T15:20:08.833Z,84.80
2019-05-09T15:22:39.483Z,83.40
2019-05-09T15:25:09.485Z,83.10
2019-05-09T15:27:38.947Z,82.80
2019-05-09T15:30:12.269Z,80.80
2019-05-09T15:32:41.704Z,80.00
2019-05-09T15:35:11.909Z,81.00
2019-05-09T15:37:42.946Z,80.50
2019-05-09T15:40:13.570Z,80.00
2019-05-09T15:42:47.859Z,80.20
2019-05-09T15:45:18.988Z,81.90
2019-05-09T15:47:48.598Z,81.30
2019-05-09T15:50:23.166Z,81.30
2019-05-09T15:52:54.460Z,81.80
2019-05-09T15:55:29.959Z,83.40
2019-05-09T15:58:00.568Z,84.40
2019-05-09T16:00:31.491Z,80.50
2019-05-09T16:03:02.620Z,81.40
2019-05-09T16:05:38.548Z,82.50
2019-05-09T16:08:11.126Z,81.00
2019-05-09T16:10:41.385Z,80.70
2019-05-09T16:13:13.188Z,78.10
2019-05-09T16:15:43.134Z,75.50
2019-05-09T16:18:14.271Z,77.80
2019-05-09T16:20:48.686Z,79.10
2019-05-09T16:23:18.640Z,78.20
2019-05-09T16:25:49.144Z,78.50
2019-05-09T16:28:18.720Z,78.40
2019-05-09T16:30:50.916Z,78.20
2019-05-09T16:33:21.963Z,81.70
2019-05-09T16:36:00.526Z,82.50
2019-05-09T16:38:43.428Z,85.30
2019-05-09T16:41:03.839Z,87.30
2019-05-09T16:43:33.270Z,87.20
2019-05-09T16:46:02.883Z,86.00
2019-05-09T16:48:32.536Z,84.70
2019-05-09T16:51:04.576Z,83.10
2019-05-09T16:53:36.371Z,83.30
2019-05-09T16:56:12.686Z,82.10
2019-05-09T16:58:43.595Z,83.40
2019-05-09T17:01:19.008Z,82.80
2019-05-09T17:03:52.997Z,81.90
2019-05-09T17:06:23.484Z,81.10
2019-05-09T17:08:52.944Z,80.70
2019-05-09T17:11:22.911Z,80.50
2019-05-09T17:13:52.491Z,79.10
2019-05-09T17:16:21.994Z,80.20
2019-05-09T17:18:51.531Z,79.60
2019-05-09T17:21:28.409Z,78.70
2019-05-09T17:24:01.432Z,78.50
2019-05-09T17:26:31.969Z,77.30
2019-05-09T17:29:04.266Z,75.40
2019-05-09T17:31:33.804Z,77.30
2019-05-09T17:34:08.158Z,76.80
2019-05-09T17:36:40.543Z,76.80
2019-05-09T17:39:11.972Z,76.40
2019-05-09T17:41:46.741Z,76.70
2019-05-09T17:44:19.986Z,76.10
2019-05-09T17:46:49.495Z,74.40
2019-05-09T17:49:24.938Z,73.50
2019-05-09T17:51:58.543Z,73.30
2019-05-09T17:54:31.546Z,71.60
2019-05-09T17:57:04.655Z,72.40
2019-05-09T17:59:36.067Z,71.90
2019-05-09T18:02:08.693Z,72.20
2019-05-09T18:04:38.181Z,71.50
2019-05-09T18:07:08.788Z,71.60
2019-05-09T18:09:38.518Z,72.30
2019-05-09T18:12:08.396Z,72.40
2019-05-09T18:14:38.949Z,73.20
2019-05-09T18:17:12.497Z,73.00
2019-05-09T18:19:47.964Z,71.00
2019-05-09T18:22:22.035Z,72.20
2019-05-09T18:24:57.708Z,70.60
2019-05-09T18:27:32.269Z,70.60
2019-05-09T18:30:02.662Z,70.20
2019-05-09T18:32:42.511Z,69.70
2019-05-09T18:35:22.026Z,70.00
2019-05-09T18:37:55.946Z,69.20
2019-05-09T18:40:36.639Z,69.70
2019-05-09T18:43:11.080Z,69.30
2019-05-09T18:45:43.013Z,69.90
2019-05-09T18:48:18.721Z,69.30
2019-05-09T18:50:51.437Z,69.10
2019-05-09T18:53:20.419Z,69.20
2019-05-09T18:55:56.488Z,68.40
2019-05-09T18:58:28.388Z,68.80
2019-05-09T19:01:08.885Z,68.60
2019-05-09T19:03:43.131Z,68.60
2019-05-09T19:06:12.847Z,67.00
2019-05-09T19:08:47.471Z,66.90
2019-05-09T19:11:20.596Z,67.20
2019-05-09T19:13:50.096Z,67.80
2019-05-09T19:16:30.154Z,66.60
2019-05-09T19:19:02.191Z,67.50
2019-05-09T19:21:33.579Z,67.60
2019-05-09T19:24:04.831Z,67.20
2019-05-09T19:26:36.281Z,67.90
2019-05-09T19:29:08.500Z,68.10
2019-05-09T19:31:41.627Z,68.30
2019-05-09T19:34:12.007Z,68.90
2019-05-09T19:36:41.526Z,68.40
2019-05-09T19:39:11.712Z,68.70
2019-05-09T19:41:42.934Z,68.80
2019-05-09T19:44:12.561Z,68.20
2019-05-09T19:46:42.103Z,69.10
2019-05-09T19:49:12.784Z,68.90
2019-05-09T19:51:42.819Z,69.50
2019-05-09T19:54:13.805Z,69.90
2019-05-09T19:56:55.956Z,70.40
2019-05-09T19:59:15.413Z,70.80
2019-05-09T20:01:47.975Z,70.10
2019-05-09T20:04:21.644Z,70.50
2019-05-09T20:06:55.381Z,71.00
2019-05-09T20:09:30.113Z,70.90
2019-05-09T20:12:01.299Z,71.30
2019-05-09T20:14:34.103Z,71.70
2019-05-09T20:17:03.977Z,71.40
2019-05-09T20:19:35.741Z,70.90
2019-05-09T20:22:08.163Z,71.40
2019-05-09T20:24:40.238Z,71.20
2019-05-09T20:27:10.716Z,71.40
2019-05-09T20:29:40.239Z,71.30
2019-05-09T20:32:14.106Z,71.80
2019-05-09T20:34:46.485Z,71.90
2019-05-09T20:37:17.103Z,71.70
2019-05-09T20:39:50.076Z,72.20
2019-05-09T20:42:21.034Z,72.00
2019-05-09T20:44:52.383Z,72.00
2019-05-09T20:47:25.351Z,72.20
2019-05-09T20:49:59.591Z,72.10
2019-05-09T20:52:32.807Z,72.40
2019-05-09T20:55:04.803Z,73.20
2019-05-09T20:57:36.488Z,73.80
2019-05-09T21:00:07.545Z,73.70
2019-05-09T21:02:39.389Z,73.80
2019-05-09T21:05:09.205Z,74.30
2019-05-09T21:07:38.924Z,74.50
2019-05-09T21:10:09.389Z,74.50
2019-05-09T21:12:42.918Z,74.10
2019-05-09T21:15:18.040Z,74.20
2019-05-09T21:17:47.788Z,74.60
2019-05-09T21:20:17.505Z,74.50
2019-05-09T21:22:48.716Z,74.70
2019-05-09T21:25:27.877Z,75.10
2019-05-09T21:28:01.545Z,74.80
2019-05-09T21:30:31.258Z,74.90
2019-05-09T21:33:04.881Z,75.30
2019-05-09T21:35:34.430Z,75.60
2019-05-09T21:38:05.574Z,75.70
2019-05-09T21:40:35.050Z,75.60
2019-05-09T21:43:06.738Z,76.50
2019-05-09T21:45:37.547Z,76.70
2019-05-09T21:48:08.084Z,76.60
2019-05-09T21:50:40.097Z,76.20
2019-05-09T21:53:09.545Z,76.40
2019-05-09T21:55:45.081Z,76.40
2019-05-09T21:58:15.519Z,76.40
2019-05-09T22:00:51.021Z,76.80
2019-05-09T22:03:24.315Z,76.60
2019-05-09T22:05:59.466Z,77.10
2019-05-09T22:08:35.725Z,77.40
2019-05-09T22:11:13.824Z,77.60
2019-05-09T22:13:44.953Z,77.60
2019-05-09T22:16:14.526Z,77.50
2019-05-09T22:18:46.149Z,77.30
2019-05-09T22:31:34.974Z,77.30
2019-05-09T22:34:05.646Z,77.50
2019-05-09T22:36:37.485Z,78.20
2019-05-09T22:39:08.690Z,77.90
2019-05-09T22:41:39.010Z,77.90
2019-05-09T22:44:08.482Z,77.80
2019-05-09T22:46:37.998Z,77.80
2019-05-09T22:49:08.457Z,77.90
2019-05-09T22:51:38.889Z,78.20
2019-05-09T22:54:12.798Z,78.20
2019-05-09T22:56:40.875Z,78.30
2019-05-09T22:59:11.966Z,79.10
2019-05-09T23:01:41.513Z,78.80
2019-05-09T23:04:13.060Z,78.90
2019-05-09T23:06:42.805Z,79.20
2019-05-09T23:09:13.369Z,78.70
2019-05-09T23:11:44.549Z,79.00
2019-05-09T23:14:15.543Z,79.90
2019-05-09T23:16:50.284Z,80.20
2019-05-09T23:19:18.193Z,79.80
2019-05-09T23:21:49.145Z,79.90
2019-05-09T23:24:28.603Z,80.30
2019-05-09T23:26:56.049Z,80.70
2019-05-09T23:29:26.600Z,80.40
2019-05-09T23:32:12.052Z,81.00
2019-05-09T23:34:42.639Z,80.80
2019-05-09T23:37:14.429Z,80.40
2019-05-09T23:39:45.646Z,80.50
2019-05-09T23:42:15.941Z,80.50
2019-05-09T23:44:45.424Z,80.50
2019-05-09T23:47:17.101Z,80.60
2019-05-09T23:49:46.543Z,80.60
2019-05-09T23:52:19.543Z,81.00
2019-05-09T23:55:07.426Z,81.20
